createdAt,value
2023-05-04T00:00:15.341Z,83.39
2023-05-04T00:02:42.583Z,83.39
2023-05-04T00:05:12.625Z,83.77
2023-05-04T00:07:41.778Z,83.90
2023-05-04T00:10:09.518Z,84.66
2023-05-04T00:12:38.604Z,84.50
2023-05-04T00:15:11.138Z,84.57
2023-05-04T00:17:39.981Z,84.65
2023-05-04T00:20:10.197Z,85.08
2023-05-04T00:22:36.937Z,84.05
2023-05-04T00:25:03.770Z,85.41
2023-05-04T00:27:33.200Z,85.04
2023-05-04T00:30:02.719Z,84.19
2023-05-04T00:32:30.935Z,82.79
2023-05-04T00:34:59.812Z,83.68
2023-05-04T00:37:26.427Z,83.01
2023-05-04T00:39:53.074Z,82.44
2023-05-04T00:42:24.483Z,82.67
2023-05-04T00:44:53.714Z,83.56
2023-05-04T00:47:25.388Z,83.12
2023-05-04T00:49:52.746Z,83.00
2023-05-04T00:52:23.230Z,83.25
2023-05-04T00:54:54.444Z,83.10
2023-05-04T00:57:21.288Z,82.82
2023-05-04T00:59:50.776Z,84.37
2023-05-04T01:02:17.478Z,84.63
2023-05-04T01:04:46.879Z,83.72
2023-05-04T01:07:54.987Z,84.18
2023-05-04T01:10:42.492Z,84.82
2023-05-04T01:13:13.038Z,86.51
2023-05-04T01:15:40.886Z,85.89
2023-05-04T01:18:07.869Z,84.59
2023-05-04T01:20:37.228Z,84.44
2023-05-04T01:23:04.293Z,83.01
2023-05-04T01:25:49.637Z,83.04
2023-05-04T01:28:32.904Z,83.85
2023-05-04T01:31:01.647Z,84.29
2023-05-04T01:33:31.604Z,83.50
2023-05-04T01:35:59.377Z,82.75
2023-05-04T01:38:28.694Z,83.42
2023-05-04T01:41:00.646Z,82.55
2023-05-04T01:43:27.258Z,81.53
2023-05-04T01:45:53.940Z,81.89
2023-05-04T01:48:23.100Z,82.20
2023-05-04T01:50:51.976Z,81.82
2023-05-04T01:53:18.659Z,82.46
2023-05-04T01:55:45.378Z,82.25
2023-05-04T01:58:14.689Z,82.24
2023-05-04T02:00:43.786Z,83.78
2023-05-04T02:03:12.808Z,82.77
2023-05-04T02:05:44.286Z,81.70
2023-05-04T02:08:11.010Z,82.03
2023-05-04T02:10:37.658Z,81.59
2023-05-04T02:13:04.345Z,81.79
2023-05-04T02:15:31.076Z,80.63
2023-05-04T02:17:57.799Z,80.64
2023-05-04T02:20:24.502Z,81.60
2023-05-04T02:22:56.431Z,82.99
2023-05-04T02:25:23.649Z,82.54
2023-05-04T02:27:50.351Z,82.88
2023-05-04T02:30:17.097Z,82.11
2023-05-04T02:32:46.649Z,81.44
2023-05-04T02:35:13.437Z,80.87
2023-05-04T02:37:40.014Z,81.62
2023-05-04T02:40:10.144Z,80.57
2023-05-04T02:42:36.864Z,81.65
2023-05-04T02:45:08.280Z,82.00
2023-05-04T02:47:37.236Z,82.10
2023-05-04T02:50:04.401Z,82.47
2023-05-04T02:52:33.556Z,82.74
2023-05-04T02:55:03.388Z,83.83
2023-05-04T02:57:34.841Z,83.78
2023-05-04T03:00:01.640Z,83.18
2023-05-04T03:02:28.451Z,82.77
2023-05-04T03:04:57.708Z,82.60
2023-05-04T03:07:26.606Z,82.08
2023-05-04T03:09:53.177Z,82.45
2023-05-04T03:12:22.482Z,83.39
2023-05-04T03:14:49.170Z,83.66
2023-05-04T03:17:20.698Z,82.84
2023-05-04T03:19:49.934Z,82.43
2023-05-04T03:22:16.660Z,83.37
2023-05-04T03:24:43.350Z,83.88
2023-05-04T03:27:10.061Z,83.13
2023-05-04T03:29:39.312Z,82.84
2023-05-04T03:32:09.247Z,83.24
2023-05-04T03:34:35.909Z,85.07
2023-05-04T03:37:02.530Z,84.92
2023-05-04T03:39:34.216Z,84.21
2023-05-04T03:42:01.332Z,83.28
2023-05-04T03:44:28.049Z,83.60
2023-05-04T03:46:57.425Z,84.23
2023-05-04T03:49:23.988Z,84.51
2023-05-04T03:51:50.554Z,83.78
2023-05-04T03:54:17.213Z,86.04
2023-05-04T03:56:44.118Z,86.37
2023-05-04T03:59:10.922Z,86.13
2023-05-04T04:01:38.084Z,85.53
2023-05-04T04:04:07.232Z,85.08
2023-05-04T04:06:38.562Z,85.99
2023-05-04T04:09:05.404Z,84.70
2023-05-04T04:11:31.981Z,84.30
2023-05-04T04:13:58.720Z,84.44
2023-05-04T04:16:25.532Z,83.58
2023-05-04T04:18:52.414Z,83.00
2023-05-04T04:21:19.152Z,82.35
2023-05-04T04:23:50.486Z,81.44
2023-05-04T04:26:17.057Z,80.95
2023-05-04T04:28:44.915Z,82.54
2023-05-04T04:31:14.042Z,82.01
2023-05-04T04:33:41.059Z,80.49
2023-05-04T04:36:08.147Z,80.25
2023-05-04T04:38:34.721Z,80.11
2023-05-04T04:41:01.415Z,78.65
2023-05-04T04:43:27.999Z,78.60
2023-05-04T04:45:59.841Z,77.68
2023-05-04T04:48:26.567Z,76.86
2023-05-04T04:50:58.545Z,77.59
2023-05-04T04:53:28.545Z,77.00
2023-05-04T04:55:55.240Z,76.53
2023-05-04T04:58:22.074Z,75.32
2023-05-04T05:00:48.782Z,75.94
2023-05-04T05:03:16.114Z,74.24
2023-05-04T05:05:45.390Z,73.63
2023-05-04T05:08:15.216Z,74.35
2023-05-04T05:10:46.795Z,73.90
2023-05-04T05:13:13.536Z,72.79
2023-05-04T05:15:40.385Z,72.78
2023-05-04T05:18:14.583Z,72.08
2023-05-04T05:20:41.399Z,71.63
2023-05-04T05:23:08.173Z,71.43
2023-05-04T05:25:34.837Z,69.42
2023-05-04T05:28:04.213Z,70.51
2023-05-04T05:30:31.248Z,69.71
2023-05-04T05:33:00.327Z,68.45
2023-05-04T05:35:34.514Z,68.17
2023-05-04T05:38:01.115Z,68.14
2023-05-04T05:40:30.764Z,66.48
2023-05-04T05:43:02.237Z,65.32
2023-05-04T05:45:31.424Z,65.40
2023-05-04T05:48:43.205Z,64.18
2023-05-04T08:03:40.781Z,57.79
2023-05-04T08:25:47.379Z,55.93
2023-05-04T08:50:10.573Z,51.70
2023-05-04T08:52:39.198Z,50.40
2023-05-04T08:55:07.329Z,52.09
2023-05-04T08:57:39.950Z,51.01
2023-05-04T09:00:08.824Z,50.18
2023-05-04T09:02:39.378Z,50.10
2023-05-04T09:05:08.068Z,49.69
2023-05-04T09:07:35.020Z,50.11
2023-05-04T09:10:04.142Z,49.82
2023-05-04T09:12:33.653Z,50.62
2023-05-04T09:15:02.485Z,49.91
2023-05-04T09:17:29.914Z,52.57
2023-05-04T09:20:07.169Z,49.36
2023-05-04T09:22:36.400Z,50.71
2023-05-04T09:25:11.198Z,47.37
2023-05-04T09:27:39.322Z,48.51
2023-05-04T09:30:06.941Z,49.24
2023-05-04T09:32:46.039Z,48.53
2023-05-04T09:35:32.025Z,47.96
2023-05-04T09:38:00.000Z,48.38
2023-05-04T09:40:41.600Z,49.13
2023-05-04T09:43:09.505Z,49.18
2023-05-04T09:45:44.677Z,47.33
2023-05-04T09:48:31.925Z,47.40
2023-05-04T09:51:03.459Z,47.03
2023-05-04T09:53:31.590Z,46.98
2023-05-04T09:56:27.572Z,46.00
2023-05-04T09:58:59.982Z,47.41
2023-05-04T10:01:30.183Z,47.29
2023-05-04T10:03:57.115Z,50.28
2023-05-04T10:06:27.546Z,46.88
2023-05-04T10:09:02.081Z,47.49
2023-05-04T10:11:28.905Z,47.27
2023-05-04T10:13:58.731Z,47.85
2023-05-04T10:16:46.959Z,49.15
2023-05-04T10:19:34.203Z,47.46
2023-05-04T10:22:01.052Z,47.86
2023-05-04T10:24:39.770Z,46.55
2023-05-04T10:27:10.458Z,47.11
2023-05-04T10:29:39.258Z,46.69
2023-05-04T10:32:08.049Z,46.07
2023-05-04T10:34:35.899Z,47.98
2023-05-04T10:37:04.245Z,49.23
2023-05-04T10:39:36.146Z,48.78
2023-05-04T10:42:07.577Z,45.74
2023-05-04T10:44:39.906Z,45.99
2023-05-04T10:47:09.152Z,48.06
2023-05-04T10:49:38.462Z,45.42
2023-05-04T10:52:16.077Z,46.62
2023-05-04T10:54:44.609Z,46.54
2023-05-04T10:57:19.925Z,44.90
2023-05-04T10:59:56.494Z,44.67
2023-05-04T11:02:27.309Z,46.30
2023-05-04T11:05:04.425Z,46.19
2023-05-04T11:07:38.258Z,46.26
2023-05-04T11:10:09.741Z,45.40
2023-05-04T11:12:41.125Z,47.79
2023-05-04T11:15:09.529Z,45.69
2023-05-04T11:17:50.124Z,46.82
2023-05-04T11:20:24.917Z,45.94
2023-05-04T11:22:52.137Z,45.73
2023-05-04T11:25:27.559Z,45.19
2023-05-04T11:27:54.269Z,44.42
2023-05-04T11:30:30.005Z,47.76
2023-05-04T11:33:00.425Z,44.24
2023-05-04T11:35:30.067Z,44.87
2023-05-04T11:37:59.294Z,42.91
2023-05-04T11:40:27.133Z,44.04
2023-05-04T11:42:58.023Z,45.35
2023-05-04T11:45:36.712Z,45.73
2023-05-04T11:48:04.747Z,47.93
2023-05-04T11:50:34.258Z,46.32
2023-05-04T11:53:06.738Z,45.66
2023-05-04T11:55:33.512Z,46.59
2023-05-04T11:58:05.348Z,46.08
2023-05-04T12:00:39.946Z,47.78
2023-05-04T12:03:08.002Z,46.40
2023-05-04T12:05:36.364Z,47.82
2023-05-04T12:08:07.280Z,45.48
2023-05-04T12:10:35.171Z,45.03
2023-05-04T12:13:02.849Z,44.34
2023-05-04T12:15:33.679Z,45.44
2023-05-04T13:24:33.587Z,52.62
2023-05-04T13:27:03.008Z,53.07
2023-05-04T13:29:29.694Z,53.35
2023-05-04T13:31:59.802Z,53.76
2023-05-04T13:34:26.467Z,54.40
2023-05-04T13:36:53.063Z,54.13
2023-05-04T13:39:22.494Z,54.59
2023-05-04T13:41:49.184Z,54.36
2023-05-04T13:44:15.802Z,54.96
2023-05-04T13:46:42.426Z,55.31
2023-05-04T13:49:13.836Z,54.48
2023-05-04T13:51:43.352Z,54.28
2023-05-04T13:54:09.934Z,53.40
2023-05-04T13:56:38.877Z,52.22
2023-05-04T13:59:08.069Z,51.29
2023-05-04T14:01:34.720Z,51.38
2023-05-04T14:04:01.267Z,49.05
2023-05-04T14:06:30.076Z,49.93
2023-05-04T14:08:58.914Z,52.75
2023-05-04T14:11:25.575Z,52.61
2023-05-04T14:13:58.555Z,53.28
2023-05-04T14:16:25.418Z,53.09
2023-05-04T14:18:57.002Z,55.64
2023-05-04T14:21:23.644Z,54.38
2023-05-04T14:23:50.405Z,52.82
2023-05-04T14:26:19.489Z,52.64
2023-05-04T14:28:49.136Z,51.42
2023-05-04T14:31:18.617Z,52.56
2023-05-04T14:33:45.206Z,51.39
2023-05-04T14:36:11.865Z,51.65
2023-05-04T14:38:41.076Z,51.54
2023-05-04T14:41:07.708Z,51.64
2023-05-04T14:43:37.037Z,52.38
2023-05-04T14:46:03.666Z,52.23
2023-05-04T14:48:30.399Z,51.50
2023-05-04T14:50:57.255Z,50.13
2023-05-04T14:53:24.099Z,50.78
2023-05-04T14:55:55.318Z,51.78
2023-05-04T14:58:24.205Z,52.51
2023-05-04T15:00:51.048Z,52.37
2023-05-04T15:03:17.955Z,52.02
2023-05-04T15:05:46.961Z,51.28
2023-05-04T15:08:15.782Z,52.33
2023-05-04T15:10:42.297Z,52.45
2023-05-04T15:13:09.417Z,53.66
2023-05-04T15:15:43.221Z,52.87
2023-05-04T15:18:10.477Z,53.24
2023-05-04T15:20:39.974Z,53.66
2023-05-04T15:23:11.875Z,53.48
2023-05-04T15:25:42.320Z,53.04
2023-05-04T15:28:14.767Z,53.07
2023-05-04T15:30:44.231Z,53.35
2023-05-04T15:33:11.008Z,53.68
2023-05-04T15:35:40.309Z,54.67
2023-05-04T15:38:06.921Z,54.79
2023-05-04T15:40:33.553Z,53.34
2023-05-04T15:43:00.111Z,53.53
2023-05-04T15:45:29.149Z,53.71
2023-05-04T15:47:58.415Z,53.66
2023-05-04T15:50:27.587Z,53.15
2023-05-04T15:52:54.139Z,51.83
2023-05-04T15:55:25.536Z,51.50
2023-05-04T15:57:55.671Z,53.28
2023-05-04T16:00:22.527Z,53.45
2023-05-04T16:02:51.935Z,54.12
2023-05-04T16:05:21.149Z,53.78
2023-05-04T16:07:50.177Z,53.22
2023-05-04T16:10:19.588Z,51.83
2023-05-04T16:12:51.106Z,52.33
2023-05-04T16:15:20.253Z,52.88
2023-05-04T16:17:47.070Z,53.73
2023-05-04T16:20:16.324Z,53.71
2023-05-04T16:22:42.902Z,52.89
2023-05-04T16:25:11.094Z,52.53
2023-05-04T16:27:40.758Z,53.03
2023-05-04T16:30:08.497Z,53.00
2023-05-04T16:32:37.588Z,54.20
2023-05-04T16:35:07.700Z,54.48
2023-05-04T16:37:40.046Z,53.70
2023-05-04T16:40:16.264Z,53.45
2023-05-04T16:42:43.919Z,54.16
2023-05-04T16:45:12.054Z,54.51
2023-05-04T16:47:41.536Z,54.13
2023-05-04T16:50:14.512Z,53.93
2023-05-04T16:52:43.695Z,54.42
2023-05-04T16:55:12.442Z,54.80
2023-05-04T16:57:39.813Z,54.83
2023-05-04T17:00:13.500Z,55.49
2023-05-04T17:02:40.305Z,55.40
2023-05-04T17:05:12.124Z,55.29
2023-05-04T17:07:43.403Z,55.13
2023-05-04T17:10:15.500Z,55.09
2023-05-04T17:12:42.563Z,55.81
2023-05-04T17:15:13.508Z,55.65
2023-05-04T17:17:42.470Z,55.58
2023-05-04T17:20:14.636Z,57.00
2023-05-04T17:22:44.886Z,57.14
2023-05-04T17:25:12.446Z,57.60
2023-05-04T17:27:41.449Z,58.36
2023-05-04T17:30:08.758Z,59.68
2023-05-04T17:32:40.850Z,59.42
2023-05-04T17:35:23.435Z,59.48
2023-05-04T17:37:56.762Z,59.08
2023-05-04T17:40:24.841Z,59.54
2023-05-04T17:42:51.494Z,59.80
2023-05-04T17:45:18.419Z,60.26
2023-05-04T17:47:46.420Z,60.24
2023-05-04T17:50:15.656Z,61.24
2023-05-04T17:52:42.379Z,59.89
2023-05-04T17:55:11.749Z,60.42
2023-05-04T17:57:38.327Z,60.27
2023-05-04T18:00:07.936Z,60.65
2023-05-04T18:02:39.715Z,60.81
2023-05-04T18:05:11.653Z,61.74
2023-05-04T18:07:38.795Z,60.93
2023-05-04T18:10:06.723Z,61.11
2023-05-04T18:12:35.479Z,61.62
2023-05-04T18:15:09.165Z,62.03
2023-05-04T18:17:37.906Z,62.43
2023-05-04T18:20:12.720Z,63.63
2023-05-04T18:22:41.916Z,62.83
2023-05-04T18:25:08.979Z,63.32
2023-05-04T18:27:38.778Z,63.78
2023-05-04T18:30:08.463Z,64.24
2023-05-04T18:32:36.120Z,63.43
2023-05-04T18:35:03.441Z,63.49
2023-05-04T18:37:32.994Z,63.29
2023-05-04T18:40:00.073Z,63.61
2023-05-04T18:42:28.998Z,64.01
2023-05-04T18:44:56.439Z,64.61
2023-05-04T18:47:23.049Z,65.01
2023-05-04T18:49:54.629Z,64.55
2023-05-04T18:52:21.794Z,64.82
2023-05-04T18:54:51.131Z,65.08
2023-05-04T18:57:17.976Z,65.65
2023-05-04T18:59:47.297Z,66.04
2023-05-04T19:02:13.907Z,65.78
2023-05-04T19:04:40.636Z,66.13
2023-05-04T19:07:09.859Z,66.11
2023-05-04T19:09:37.476Z,66.81
2023-05-04T19:12:04.624Z,67.10
2023-05-04T19:14:34.681Z,67.55
2023-05-04T19:17:05.484Z,68.27
2023-05-04T19:19:40.400Z,68.76
2023-05-04T19:22:11.761Z,68.83
2023-05-04T19:24:40.646Z,70.00
2023-05-04T19:27:07.406Z,68.70
2023-05-04T19:29:34.190Z,68.16
2023-05-04T19:32:05.669Z,68.36
2023-05-04T19:34:35.476Z,69.33
2023-05-04T19:37:04.795Z,67.95
2023-05-04T19:39:31.436Z,68.71
2023-05-04T19:41:58.052Z,70.90
2023-05-04T19:44:24.641Z,71.03
2023-05-04T19:46:51.682Z,70.68
2023-05-04T19:49:21.873Z,70.68
2023-05-04T19:51:48.852Z,70.55
2023-05-04T19:54:17.666Z,69.74
2023-05-04T19:56:44.310Z,69.60
2023-05-04T19:59:13.315Z,69.32
2023-05-04T20:01:42.040Z,70.50
2023-05-04T20:04:12.308Z,69.99
2023-05-04T20:06:38.976Z,70.80
2023-05-04T20:09:05.733Z,71.87
2023-05-04T20:11:36.021Z,71.25
2023-05-04T20:14:02.748Z,71.57
2023-05-04T20:16:29.513Z,70.74
2023-05-04T20:18:56.415Z,70.17
2023-05-04T20:21:23.221Z,70.63
2023-05-04T20:23:49.959Z,70.51
2023-05-04T20:26:16.566Z,71.81
2023-05-04T20:28:47.852Z,71.74
2023-05-04T20:31:16.720Z,71.89
2023-05-04T20:33:43.400Z,71.02
2023-05-04T20:36:11.789Z,71.30
2023-05-04T20:38:39.334Z,71.41
2023-05-04T20:41:09.736Z,72.24
2023-05-04T20:43:36.652Z,72.68
2023-05-04T20:46:04.491Z,72.04
2023-05-04T20:48:34.847Z,71.66
2023-05-04T20:51:13.336Z,71.69
2023-05-04T20:53:43.294Z,72.57
2023-05-04T20:56:09.863Z,72.41
2023-05-04T20:58:36.526Z,73.64
2023-05-04T21:01:12.383Z,75.30
2023-05-04T21:03:43.813Z,75.44
2023-05-04T21:06:12.827Z,75.41
2023-05-04T21:08:39.966Z,75.96
2023-05-04T21:11:06.667Z,75.73
2023-05-04T21:13:33.329Z,75.45
2023-05-04T21:16:00.030Z,73.87
2023-05-04T21:18:29.399Z,73.14
2023-05-04T21:20:58.691Z,73.03
2023-05-04T21:23:27.643Z,73.60
2023-05-04T21:26:06.300Z,73.16
2023-05-04T21:28:33.208Z,73.82
2023-05-04T21:30:59.891Z,73.99
2023-05-04T21:33:31.911Z,74.41
2023-05-04T21:36:13.670Z,73.58
2023-05-04T21:38:40.801Z,73.52
2023-05-04T21:41:15.085Z,71.56
2023-05-04T21:43:42.583Z,71.67
2023-05-04T21:46:09.806Z,70.20
2023-05-04T21:48:36.494Z,69.74
2023-05-04T21:51:05.794Z,69.73
2023-05-04T21:53:35.442Z,68.81
2023-05-04T21:56:10.808Z,68.88
2023-05-04T21:58:42.082Z,63.79
2023-05-04T22:01:15.588Z,63.99
2023-05-04T22:03:42.435Z,63.14
2023-05-04T22:06:09.349Z,62.98
2023-05-04T22:08:38.280Z,61.44
2023-05-04T22:11:07.619Z,59.47
2023-05-04T22:13:36.549Z,59.99
2023-05-04T22:16:08.504Z,59.95
2023-05-04T22:18:39.981Z,58.31
2023-05-04T22:21:06.565Z,57.97
2023-05-04T22:23:33.310Z,58.04
2023-05-04T22:25:59.875Z,58.07
2023-05-04T22:28:31.249Z,57.46
2023-05-04T22:31:03.202Z,58.11
2023-05-04T22:33:32.165Z,57.97
2023-05-04T22:35:59.042Z,56.71
2023-05-04T22:38:28.034Z,56.59
2023-05-04T22:40:54.689Z,57.40
2023-05-04T22:43:21.298Z,57.27
2023-05-04T22:45:47.924Z,58.50
2023-05-04T22:48:15.098Z,57.93
2023-05-04T22:50:41.694Z,57.10
2023-05-04T22:53:08.408Z,57.23
2023-05-04T22:55:35.155Z,57.04
2023-05-04T22:58:04.218Z,56.90
2023-05-04T23:00:30.680Z,56.86
2023-05-04T23:02:59.562Z,57.81
2023-05-04T23:05:26.854Z,56.63
2023-05-04T23:07:53.457Z,57.07
2023-05-04T23:10:22.954Z,57.56
2023-05-04T23:12:49.615Z,57.15
2023-05-04T23:15:16.412Z,57.25
2023-05-04T23:17:43.454Z,56.88
2023-05-04T23:20:13.380Z,58.17
2023-05-04T23:22:42.389Z,59.61
2023-05-04T23:25:08.892Z,58.76
2023-05-04T23:27:38.114Z,57.55
2023-05-04T23:30:06.184Z,57.97
2023-05-04T23:32:32.924Z,58.13
2023-05-04T23:35:01.765Z,57.83
2023-05-04T23:37:33.461Z,60.04
2023-05-04T23:40:00.404Z,59.66
2023-05-04T23:42:31.773Z,59.88
2023-05-04T23:45:00.502Z,58.79
2023-05-04T23:47:29.574Z,59.31
2023-05-04T23:49:58.531Z,59.72
2023-05-04T23:52:27.580Z,59.96
2023-05-04T23:54:54.376Z,59.95
2023-05-04T23:57:21.028Z,60.53
2023-05-04T23:59:50.388Z,58.64
